Time;durP1;ratioP1;P1;durP2;ratioP2;P2;SDS_P1;SDS_P2;PMS_P1;PMS_P2;Temp;Humidity;BMP_temperature;BMP_pressure;BME280_temperature;BME280_humidity;BME280_pressure;Samples;Min_cycle;Max_cycle;Signal;HPM_P1;HPM_P2
2022/06/30 00:01:25;;;;;;;9.68;8.77;;;;;;;;;;5030781;28;20025;-68
2022/06/30 00:03:51;;;;;;;10.13;9.13;;;;;;;;;;5030832;28;20076;-69
2022/06/30 00:06:17;;;;;;;10.77;9.20;;;;;;;;;;5030889;28;20086;-69
2022/06/30 00:08:43;;;;;;;12.38;9.77;;;;;;;;;;5030507;28;20032;-67
2022/06/30 00:11:09;;;;;;;11.50;9.75;;;;;;;;;;5030972;28;20033;-69
2022/06/30 00:13:36;;;;;;;10.13;9.13;;;;;;;;;;5031212;28;20066;-69
2022/06/30 00:16:03;;;;;;;14.82;9.90;;;;;;;;;;5030300;28;20436;-69
2022/06/30 00:18:29;;;;;;;11.07;9.98;;;;;;;;;;5030004;28;20569;-68
2022/06/30 00:20:55;;;;;;;10.90;9.43;;;;;;;;;;5012473;28;20025;-69
2022/06/30 00:23:21;;;;;;;10.85;9.82;;;;;;;;;;5030254;28;20029;-68
2022/06/30 00:25:47;;;;;;;12.90;11.57;;;;;;;;;;5030117;28;20018;-69
2022/06/30 00:28:13;;;;;;;12.18;10.90;;;;;;;;;;5030069;28;20028;-68
2022/06/30 00:30:39;;;;;;;13.10;10.57;;;;;;;;;;5029755;28;20141;-69
2022/06/30 00:33:05;;;;;;;11.68;10.52;;;;;;;;;;5028690;28;20053;-69
2022/06/30 00:35:31;;;;;;;13.02;10.52;;;;;;;;;;5030188;28;20024;-69
2022/06/30 00:37:57;;;;;;;14.07;10.27;;;;;;;;;;5029884;28;20512;-69
2022/06/30 00:40:23;;;;;;;12.48;10.60;;;;;;;;;;5030437;28;20030;-68
2022/06/30 00:42:49;;;;;;;11.82;10.65;;;;;;;;;;5029937;28;20075;-69
2022/06/30 00:45:15;;;;;;;11.88;10.10;;;;;;;;;;5030031;28;20514;-69
2022/06/30 00:47:41;;;;;;;15.90;12.43;;;;;;;;;;5029746;28;20036;-68
2022/06/30 00:50:08;;;;;;;15.15;13.65;;;;;;;;;;5030008;28;20100;-71
2022/06/30 00:52:35;;;;;;;15.90;12.82;;;;;;;;;;5012273;28;20025;-69
2022/06/30 00:55:02;;;;;;;19.15;15.13;;;;;;;;;;5029836;28;20064;-70
2022/06/30 00:57:29;;;;;;;23.23;16.38;;;;;;;;;;5029317;28;20064;-68
2022/06/30 00:59:57;;;;;;;19.85;15.50;;;;;;;;;;5029739;28;20467;-69
2022/06/30 01:02:23;;;;;;;18.60;15.90;;;;;;;;;;5029570;28;20105;-70
2022/06/30 01:04:50;;;;;;;18.52;15.30;;;;;;;;;;5029637;28;20444;-70
2022/06/30 01:07:16;;;;;;;20.42;16.02;;;;;;;;;;5030321;28;20033;-69
2022/06/30 01:12:42;;;;;;;16.73;15.02;;;;;;;;;;5029639;28;20411;-69
2022/06/30 01:15:09;;;;;;;25.05;15.40;;;;;;;;;;5029519;28;20032;-69
2022/06/30 01:17:35;;;;;;;15.55;13.95;;;;;;;;;;5029236;28;20038;-68
2022/06/30 01:20:01;;;;;;;14.57;13.13;;;;;;;;;;5029634;28;20090;-69
2022/06/30 01:22:27;;;;;;;17.73;13.82;;;;;;;;;;5029318;28;20026;-69
2022/06/30 01:24:53;;;;;;;17.20;14.38;;;;;;;;;;5029312;28;20022;-70
2022/06/30 01:27:19;;;;;;;16.42;14.80;;;;;;;;;;5028926;28;20060;-69
2022/06/30 01:29:46;;;;;;;17.30;13.20;;;;;;;;;;5029270;28;20033;-69
2022/06/30 01:32:12;;;;;;;14.82;13.23;;;;;;;;;;5029080;28;20029;-69
2022/06/30 01:34:38;;;;;;;16.40;14.70;;;;;;;;;;5029469;28;20029;-70
2022/06/30 01:37:04;;;;;;;15.95;13.20;;;;;;;;;;5028980;28;20032;-68
2022/06/30 01:39:30;;;;;;;15.45;13.75;;;;;;;;;;5029241;28;20021;-70
2022/06/30 01:41:57;;;;;;;14.65;12.90;;;;;;;;;;5028872;28;20479;-71
2022/06/30 01:44:23;;;;;;;15.73;14.05;;;;;;;;;;5028355;28;20056;-70
2022/06/30 01:46:49;;;;;;;24.13;13.15;;;;;;;;;;5029009;28;20467;-71
2022/06/30 01:49:15;;;;;;;14.63;12.07;;;;;;;;;;5027672;28;20440;-69
2022/06/30 01:51:42;;;;;;;14.75;13.23;;;;;;;;;;5028885;28;20074;-69
2022/06/30 01:54:08;;;;;;;14.50;12.82;;;;;;;;;;5028961;28;20033;-69
2022/06/30 01:56:35;;;;;;;13.48;11.45;;;;;;;;;;5028882;28;20441;-69
2022/06/30 01:59:01;;;;;;;14.65;12.00;;;;;;;;;;5028483;28;20033;-69
2022/06/30 02:01:26;;;;;;;14.75;12.15;;;;;;;;;;5028739;28;20025;-70
2022/06/30 02:03:53;;;;;;;12.27;10.93;;;;;;;;;;5028834;28;20022;-70
2022/06/30 02:06:19;;;;;;;12.20;10.32;;;;;;;;;;5029275;28;20056;-70
2022/06/30 02:08:45;;;;;;;13.38;11.57;;;;;;;;;;5028978;28;20033;-69
2022/06/30 02:11:11;;;;;;;11.25;10.15;;;;;;;;;;5029003;28;20052;-69
2022/06/30 02:13:37;;;;;;;11.85;10.57;;;;;;;;;;5028723;28;20044;-70
2022/06/30 02:16:03;;;;;;;15.70;11.43;;;;;;;;;;5028857;28;20029;-70
2022/06/30 02:18:29;;;;;;;16.30;11.93;;;;;;;;;;5028628;28;20028;-70
2022/06/30 02:20:57;;;;;;;16.75;11.68;;;;;;;;;;5028828;28;20025;-70
2022/06/30 02:23:23;;;;;;;14.30;10.70;;;;;;;;;;5028648;28;20105;-70
2022/06/30 02:25:49;;;;;;;11.57;10.07;;;;;;;;;;5028567;28;20049;-70
2022/06/30 02:28:15;;;;;;;11.50;10.30;;;;;;;;;;5028519;28;20108;-69
2022/06/30 02:30:41;;;;;;;13.10;10.95;;;;;;;;;;5028842;28;20025;-69
2022/06/30 02:33:07;;;;;;;15.10;10.73;;;;;;;;;;5028471;28;20033;-69
2022/06/30 02:35:33;;;;;;;12.52;10.20;;;;;;;;;;5028987;28;20460;-70
2022/06/30 02:37:59;;;;;;;14.50;10.32;;;;;;;;;;5028334;28;20066;-70
2022/06/30 02:40:25;;;;;;;13.82;10.93;;;;;;;;;;5029192;28;20022;-70
2022/06/30 02:42:51;;;;;;;13.13;10.40;;;;;;;;;;5029057;28;20026;-70
2022/06/30 02:45:17;;;;;;;12.98;11.23;;;;;;;;;;5028649;28;20026;-70
2022/06/30 02:47:44;;;;;;;15.05;10.63;;;;;;;;;;5028103;28;20036;-70
2022/06/30 02:50:11;;;;;;;12.77;10.10;;;;;;;;;;5028966;28;20041;-70
2022/06/30 02:52:38;;;;;;;11.88;10.68;;;;;;;;;;5028383;28;20438;-70
2022/06/30 02:55:05;;;;;;;14.80;11.65;;;;;;;;;;5030585;28;20034;-70
2022/06/30 02:57:31;;;;;;;19.20;13.13;;;;;;;;;;5031270;28;20059;-70
2022/06/30 02:59:57;;;;;;;14.77;12.38;;;;;;;;;;5031937;28;20045;-69
2022/06/30 03:02:23;;;;;;;12.80;11.40;;;;;;;;;;5014115;28;20036;-70
2022/06/30 03:04:49;;;;;;;12.43;11.20;;;;;;;;;;5032030;28;20018;-69
2022/06/30 03:07:15;;;;;;;17.27;11.70;;;;;;;;;;5013941;28;20025;-69
2022/06/30 03:09:42;;;;;;;18.88;12.25;;;;;;;;;;5031494;28;20029;-69
2022/06/30 03:12:08;;;;;;;13.55;11.95;;;;;;;;;;5031426;28;20112;-69
2022/06/30 03:14:34;;;;;;;20.02;14.25;;;;;;;;;;5031581;28;20022;-71
2022/06/30 03:17:00;;;;;;;30.95;19.52;;;;;;;;;;5029132;28;20022;-69
2022/06/30 03:19:26;;;;;;;21.02;15.25;;;;;;;;;;5030683;28;20464;-70
2022/06/30 03:21:54;;;;;;;24.33;15.55;;;;;;;;;;5030948;28;20037;-70
2022/06/30 03:24:20;;;;;;;17.08;12.15;;;;;;;;;;5031099;28;20090;-70
2022/06/30 03:26:46;;;;;;;14.73;11.18;;;;;;;;;;5029492;28;20316;-71
2022/06/30 03:29:12;;;;;;;49.78;28.00;;;;;;;;;;5030506;28;20139;-68
2022/06/30 03:31:38;;;;;;;77.95;38.17;;;;;;;;;;5030852;28;20073;-69
2022/06/30 03:34:04;;;;;;;74.28;37.83;;;;;;;;;;5031278;28;20026;-69
2022/06/30 03:36:30;;;;;;;111.78;49.78;;;;;;;;;;5031019;28;20032;-69
2022/06/30 03:38:57;;;;;;;19.15;13.20;;;;;;;;;;5030768;28;20095;-69
2022/06/30 03:41:23;;;;;;;33.08;18.30;;;;;;;;;;5030962;28;20169;-70
2022/06/30 03:43:49;;;;;;;62.80;28.08;;;;;;;;;;5030933;28;20022;-69
2022/06/30 03:46:15;;;;;;;20.40;14.45;;;;;;;;;;5030731;28;20028;-69
2022/06/30 03:48:41;;;;;;;16.35;11.05;;;;;;;;;;5029815;28;20025;-69
2022/06/30 03:51:07;;;;;;;15.52;12.20;;;;;;;;;;5013143;28;20067;-69
2022/06/30 03:53:33;;;;;;;16.77;12.13;;;;;;;;;;5030722;28;20382;-69
2022/06/30 03:55:59;;;;;;;17.85;12.70;;;;;;;;;;5030248;28;20032;-70
2022/06/30 03:58:25;;;;;;;16.55;10.95;;;;;;;;;;5029487;28;20017;-70
2022/06/30 04:00:51;;;;;;;17.52;10.93;;;;;;;;;;5013047;28;20458;-70
2022/06/30 04:03:17;;;;;;;13.00;11.60;;;;;;;;;;5030785;28;20036;-70
2022/06/30 04:05:43;;;;;;;12.45;10.15;;;;;;;;;;5028304;28;20034;-70
2022/06/30 04:08:10;;;;;;;16.75;11.85;;;;;;;;;;5029591;28;20029;-69
2022/06/30 04:10:36;;;;;;;18.63;10.77;;;;;;;;;;5030420;28;20013;-70
2022/06/30 04:13:03;;;;;;;14.98;10.88;;;;;;;;;;5030120;28;20071;-70
2022/06/30 04:15:29;;;;;;;12.40;10.95;;;;;;;;;;5028901;28;20018;-68
2022/06/30 04:17:55;;;;;;;15.05;11.35;;;;;;;;;;5028994;28;20021;-69
2022/06/30 04:20:21;;;;;;;21.63;14.27;;;;;;;;;;5029462;28;20385;-68
2022/06/30 04:22:48;;;;;;;23.80;14.80;;;;;;;;;;5027898;28;20082;-69
2022/06/30 04:25:14;;;;;;;18.67;13.75;;;;;;;;;;5028455;28;20021;-69
2022/06/30 04:27:47;;;;;;;18.92;13.05;;;;;;;;;;5009607;28;20025;-70
2022/06/30 04:30:13;;;;;;;19.00;13.48;;;;;;;;;;5026894;28;20079;-69
2022/06/30 04:32:40;;;;;;;25.63;16.00;;;;;;;;;;5027626;28;20051;-70
2022/06/30 04:35:11;;;;;;;22.92;16.40;;;;;;;;;;5028325;28;20018;-70
2022/06/30 04:37:37;;;;;;;30.42;17.98;;;;;;;;;;5028868;28;20029;-70
2022/06/30 04:42:48;;;;;;;35.55;21.80;;;;;;;;;;5029825;28;20036;-70
2022/06/30 04:45:15;;;;;;;31.45;19.30;;;;;;;;;;5033524;27;20510;-70
2022/06/30 04:47:41;;;;;;;37.75;21.75;;;;;;;;;;5028749;28;20072;-69
2022/06/30 04:50:07;;;;;;;37.47;21.35;;;;;;;;;;5029003;28;20045;-70
2022/06/30 04:52:34;;;;;;;37.45;23.65;;;;;;;;;;5028932;28;20113;-69
2022/06/30 04:55:00;;;;;;;45.40;27.30;;;;;;;;;;5028961;28;20075;-70
2022/06/30 04:57:26;;;;;;;53.95;28.00;;;;;;;;;;5028561;28;20029;-70
2022/06/30 04:59:52;;;;;;;55.22;30.05;;;;;;;;;;5029266;28;20028;-69
2022/06/30 05:02:18;;;;;;;55.03;30.02;;;;;;;;;;5029152;28;20403;-70
2022/06/30 05:04:44;;;;;;;50.38;26.90;;;;;;;;;;5028847;28;20452;-70
2022/06/30 05:07:10;;;;;;;49.60;27.15;;;;;;;;;;5028180;28;20492;-69
2022/06/30 05:09:36;;;;;;;53.28;28.45;;;;;;;;;;5025688;28;20029;-69
2022/06/30 05:12:05;;;;;;;44.28;26.05;;;;;;;;;;5026039;28;20034;-69
2022/06/30 05:14:31;;;;;;;47.85;29.20;;;;;;;;;;5027050;28;20376;-71
2022/06/30 05:16:57;;;;;;;48.05;28.85;;;;;;;;;;5026911;28;20583;-70
2022/06/30 05:19:23;;;;;;;43.70;27.88;;;;;;;;;;5028450;28;20021;-69
2022/06/30 05:21:49;;;;;;;45.25;27.48;;;;;;;;;;5027604;28;20029;-69
2022/06/30 05:27:04;;;;;;;43.33;27.55;;;;;;;;;;5037788;28;20026;-68
2022/06/30 05:29:30;;;;;;;51.17;27.35;;;;;;;;;;5031513;27;20045;-69
2022/06/30 05:31:56;;;;;;;46.88;28.67;;;;;;;;;;5058077;22;20022;-71
2022/06/30 05:34:22;;;;;;;44.25;28.83;;;;;;;;;;4979456;28;20113;-71
2022/06/30 05:36:48;;;;;;;45.40;29.58;;;;;;;;;;5008532;28;20038;-71
2022/06/30 05:39:14;;;;;;;44.88;29.08;;;;;;;;;;5007855;28;20026;-71
2022/06/30 05:41:40;;;;;;;47.25;29.40;;;;;;;;;;5010490;28;20363;-71
2022/06/30 05:44:06;;;;;;;39.45;26.58;;;;;;;;;;5028307;28;20026;-71
2022/06/30 05:46:32;;;;;;;48.58;30.17;;;;;;;;;;5008506;28;20025;-72
2022/06/30 05:48:58;;;;;;;48.22;27.98;;;;;;;;;;5026200;28;20089;-72
2022/06/30 05:51:24;;;;;;;41.42;26.35;;;;;;;;;;5027949;28;20116;-72
2022/06/30 05:53:50;;;;;;;40.53;27.60;;;;;;;;;;5028498;28;20124;-72
2022/06/30 05:56:16;;;;;;;43.28;27.55;;;;;;;;;;5026863;28;20028;-73
2022/06/30 05:58:42;;;;;;;47.60;28.23;;;;;;;;;;5027685;28;20425;-73
2022/06/30 06:01:08;;;;;;;37.10;25.42;;;;;;;;;;5025198;28;20101;-75
2022/06/30 06:03:34;;;;;;;44.13;26.88;;;;;;;;;;5026923;28;20026;-72
2022/06/30 06:06:00;;;;;;;42.95;28.45;;;;;;;;;;5028653;28;20547;-73
2022/06/30 06:08:26;;;;;;;36.78;25.25;;;;;;;;;;5027899;28;20022;-72
2022/06/30 06:10:53;;;;;;;37.70;24.52;;;;;;;;;;5028431;28;20053;-73
2022/06/30 06:13:19;;;;;;;36.78;24.83;;;;;;;;;;5028343;28;20493;-74
2022/06/30 06:15:45;;;;;;;42.35;25.92;;;;;;;;;;5028414;28;20104;-73
2022/06/30 06:18:11;;;;;;;33.92;24.42;;;;;;;;;;5027613;28;20066;-73
2022/06/30 06:20:37;;;;;;;40.33;26.70;;;;;;;;;;5010286;28;20137;-73
2022/06/30 06:23:03;;;;;;;32.38;25.45;;;;;;;;;;5010434;28;20071;-74
2022/06/30 06:25:29;;;;;;;33.53;23.67;;;;;;;;;;5028157;28;20017;-70
2022/06/30 06:30:40;;;;;;;32.30;23.23;;;;;;;;;;5030960;28;20125;-70
2022/06/30 06:33:06;;;;;;;36.47;24.58;;;;;;;;;;5031502;28;20041;-71
2022/06/30 06:35:32;;;;;;;36.25;25.35;;;;;;;;;;5031667;28;20036;-71
2022/06/30 06:37:58;;;;;;;37.88;23.25;;;;;;;;;;5030870;28;20034;-72
2022/06/30 06:40:24;;;;;;;32.60;23.02;;;;;;;;;;5013745;28;20025;-71
2022/06/30 06:42:50;;;;;;;31.20;22.98;;;;;;;;;;5031556;28;20158;-71
2022/06/30 06:45:16;;;;;;;36.38;23.23;;;;;;;;;;5025647;28;20507;-71
2022/06/30 06:47:42;;;;;;;26.92;19.30;;;;;;;;;;5010706;28;20026;-72
2022/06/30 06:50:08;;;;;;;28.60;20.35;;;;;;;;;;5011706;28;20030;-71
2022/06/30 06:52:35;;;;;;;29.48;20.33;;;;;;;;;;5010007;28;20036;-70
2022/06/30 06:55:01;;;;;;;28.45;20.42;;;;;;;;;;5011256;28;20407;-71
2022/06/30 06:57:32;;;;;;;33.45;22.13;;;;;;;;;;5010269;28;20046;-72
2022/06/30 06:59:58;;;;;;;28.80;19.65;;;;;;;;;;5010154;28;20547;-71
2022/06/30 07:02:24;;;;;;;28.13;20.30;;;;;;;;;;5010722;28;20098;-71
2022/06/30 07:04:50;;;;;;;28.38;20.80;;;;;;;;;;5010670;28;20495;-75
2022/06/30 07:07:16;;;;;;;30.83;21.52;;;;;;;;;;5021820;27;20041;-76
2022/06/30 07:09:42;;;;;;;31.40;21.52;;;;;;;;;;5028477;28;20025;-75
2022/06/30 07:12:08;;;;;;;32.22;22.45;;;;;;;;;;5013335;28;20047;-74
2022/06/30 07:14:34;;;;;;;29.98;21.73;;;;;;;;;;5013244;28;20039;-75
2022/06/30 07:17:00;;;;;;;40.35;25.52;;;;;;;;;;5030494;28;20419;-72
2022/06/30 07:19:26;;;;;;;31.58;23.90;;;;;;;;;;5031033;28;20025;-74
2022/06/30 07:21:52;;;;;;;38.20;25.52;;;;;;;;;;5031193;28;20100;-73
2022/06/30 07:24:18;;;;;;;43.50;26.30;;;;;;;;;;5030815;28;20068;-71
2022/06/30 07:26:44;;;;;;;36.78;26.02;;;;;;;;;;5012942;28;20458;-72
2022/06/30 07:29:11;;;;;;;36.78;23.85;;;;;;;;;;5030281;28;20078;-74
2022/06/30 07:31:36;;;;;;;39.90;26.75;;;;;;;;;;5030622;28;20029;-72
2022/06/30 07:34:02;;;;;;;39.35;25.42;;;;;;;;;;5030826;28;20037;-73
2022/06/30 07:36:28;;;;;;;39.25;25.17;;;;;;;;;;5030622;28;20030;-73
2022/06/30 07:38:54;;;;;;;40.13;26.55;;;;;;;;;;5033204;28;20017;-73
2022/06/30 07:41:21;;;;;;;40.85;25.52;;;;;;;;;;5039013;28;20032;-73
2022/06/30 07:43:47;;;;;;;45.60;27.90;;;;;;;;;;5041341;28;20022;-74
2022/06/30 07:46:14;;;;;;;42.10;28.23;;;;;;;;;;5042862;28;20402;-73
2022/06/30 07:48:40;;;;;;;42.00;23.85;;;;;;;;;;5033701;28;20105;-73
2022/06/30 07:51:07;;;;;;;33.03;24.48;;;;;;;;;;5046829;28;20479;-75
2022/06/30 07:53:33;;;;;;;34.67;22.92;;;;;;;;;;5019073;28;20064;-73
2022/06/30 07:55:59;;;;;;;32.72;24.08;;;;;;;;;;5039719;28;20030;-73
2022/06/30 07:58:25;;;;;;;33.40;22.60;;;;;;;;;;5025882;28;20021;-74
2022/06/30 08:00:51;;;;;;;27.63;21.02;;;;;;;;;;5033624;28;20025;-73
2022/06/30 08:03:17;;;;;;;29.27;20.17;;;;;;;;;;5045584;28;20228;-74
2022/06/30 08:05:43;;;;;;;26.25;19.08;;;;;;;;;;5037473;28;20017;-74
2022/06/30 08:08:09;;;;;;;26.90;19.98;;;;;;;;;;5019501;28;20033;-74
2022/06/30 08:10:35;;;;;;;26.15;19.35;;;;;;;;;;5045785;28;20052;-75
2022/06/30 08:13:01;;;;;;;24.02;19.58;;;;;;;;;;5033452;28;20467;-74
2022/06/30 08:15:27;;;;;;;33.03;24.73;;;;;;;;;;5040967;28;20031;-74
2022/06/30 08:17:53;;;;;;;33.47;21.10;;;;;;;;;;5021576;28;20090;-74
2022/06/30 08:20:19;;;;;;;25.10;18.88;;;;;;;;;;5043072;28;20029;-72
2022/06/30 08:22:45;;;;;;;29.92;21.55;;;;;;;;;;5033104;28;20029;-73
2022/06/30 08:25:11;;;;;;;26.55;19.63;;;;;;;;;;5046104;28;20138;-75
2022/06/30 08:27:37;;;;;;;25.15;20.83;;;;;;;;;;5012718;28;20061;-74
2022/06/30 08:30:03;;;;;;;28.23;19.23;;;;;;;;;;5041216;28;20021;-74
2022/06/30 08:32:30;;;;;;;28.05;19.90;;;;;;;;;;5034756;28;20112;-76
2022/06/30 08:34:56;;;;;;;22.08;19.00;;;;;;;;;;5045741;28;20043;-75
2022/06/30 08:37:22;;;;;;;29.73;23.92;;;;;;;;;;5028094;28;20029;-73
2022/06/30 08:42:33;;;;;;;24.48;21.08;;;;;;;;;;5029461;28;20567;-75
2022/06/30 08:45:14;;;;;;;25.90;22.92;;;;;;;;;;5029762;28;20032;-78
2022/06/30 08:47:43;;;;;;;26.90;22.15;;;;;;;;;;5028362;28;20033;-73
2022/06/30 08:50:10;;;;;;;28.70;22.38;;;;;;;;;;5012156;28;20402;-74
2022/06/30 08:52:57;;;;;;;27.17;21.33;;;;;;;;;;5029560;28;20030;-72
2022/06/30 08:55:25;;;;;;;25.80;22.95;;;;;;;;;;5029764;28;20053;-72
2022/06/30 08:57:52;;;;;;;29.15;20.70;;;;;;;;;;5028666;28;20471;-71
2022/06/30 09:00:18;;;;;;;25.55;21.77;;;;;;;;;;5029612;28;20021;-72
2022/06/30 09:02:45;;;;;;;25.70;20.60;;;;;;;;;;5029670;28;20086;-71
2022/06/30 09:05:12;;;;;;;29.75;23.20;;;;;;;;;;5011856;28;20026;-73
2022/06/30 09:07:38;;;;;;;27.55;19.98;;;;;;;;;;5027834;28;20029;-71
2022/06/30 09:10:08;;;;;;;27.00;21.27;;;;;;;;;;5029928;28;20035;-72
2022/06/30 09:12:34;;;;;;;22.15;18.77;;;;;;;;;;5029219;28;20026;-71
2022/06/30 09:15:00;;;;;;;22.10;18.90;;;;;;;;;;5029741;28;20030;-72
2022/06/30 09:17:28;;;;;;;25.58;20.70;;;;;;;;;;5011089;28;20026;-74
2022/06/30 09:19:54;;;;;;;26.98;20.90;;;;;;;;;;5012019;28;20108;-72
2022/06/30 09:22:22;;;;;;;26.30;22.17;;;;;;;;;;5029350;28;20037;-73
2022/06/30 09:24:54;;;;;;;25.02;19.92;;;;;;;;;;5011460;28;20033;-72
2022/06/30 09:27:20;;;;;;;24.15;18.40;;;;;;;;;;5029574;28;20029;-73
2022/06/30 09:29:46;;;;;;;27.58;21.70;;;;;;;;;;5028283;28;20029;-72
2022/06/30 09:32:12;;;;;;;26.95;23.13;;;;;;;;;;5029355;28;20037;-72
2022/06/30 09:34:40;;;;;;;30.70;24.83;;;;;;;;;;5029560;28;20032;-71
2022/06/30 09:37:15;;;;;;;28.15;22.13;;;;;;;;;;5026826;28;20032;-71
2022/06/30 09:39:44;;;;;;;26.17;20.10;;;;;;;;;;5029131;28;20022;-71
2022/06/30 09:42:10;;;;;;;24.65;20.33;;;;;;;;;;5029006;28;20030;-71
2022/06/30 09:44:36;;;;;;;23.15;19.13;;;;;;;;;;5029169;28;20021;-71
2022/06/30 09:47:06;;;;;;;26.20;19.58;;;;;;;;;;5027956;28;20029;-71
2022/06/30 09:49:33;;;;;;;26.95;20.02;;;;;;;;;;5029172;28;20025;-72
2022/06/30 09:51:59;;;;;;;24.33;21.08;;;;;;;;;;5027579;28;20033;-72
2022/06/30 09:54:26;;;;;;;28.55;22.98;;;;;;;;;;5029152;28;20100;-72
2022/06/30 09:57:02;;;;;;;29.35;24.20;;;;;;;;;;5028674;28;20178;-72
2022/06/30 09:59:28;;;;;;;26.25;21.27;;;;;;;;;;5028659;28;20033;-71
2022/06/30 10:01:54;;;;;;;23.15;20.67;;;;;;;;;;5028786;28;20463;-71
2022/06/30 10:04:20;;;;;;;27.58;20.25;;;;;;;;;;5028043;28;20372;-71
2022/06/30 10:06:46;;;;;;;22.73;19.30;;;;;;;;;;5028480;28;20033;-71
2022/06/30 10:09:15;;;;;;;26.00;20.05;;;;;;;;;;5028141;28;20033;-71
2022/06/30 10:11:42;;;;;;;26.70;17.77;;;;;;;;;;5028693;28;20026;-72
2022/06/30 10:14:08;;;;;;;28.15;20.02;;;;;;;;;;5028592;28;20033;-70
2022/06/30 10:16:34;;;;;;;21.13;18.80;;;;;;;;;;5028449;28;20033;-72
2022/06/30 10:19:01;;;;;;;25.55;17.88;;;;;;;;;;5027595;28;20475;-71
2022/06/30 10:21:27;;;;;;;24.55;20.63;;;;;;;;;;5026903;28;20049;-71
2022/06/30 10:23:53;;;;;;;26.38;21.42;;;;;;;;;;5028903;28;20047;-72
2022/06/30 10:29:20;;;;;;;;;;;;;;;;;;5049293;28;20029;-71
2022/06/30 10:31:51;;;;;;;24.55;20.10;;;;;;;;;;5032606;28;20428;-72
2022/06/30 10:34:20;;;;;;;25.25;20.13;;;;;;;;;;5025331;28;20503;-72
2022/06/30 10:37:01;;;;;;;27.60;21.77;;;;;;;;;;5028160;28;20036;-72
2022/06/30 10:39:42;;;;;;;21.23;18.92;;;;;;;;;;5027974;28;20416;-72
2022/06/30 10:42:08;;;;;;;23.25;18.83;;;;;;;;;;5029241;28;20029;-72
2022/06/30 10:44:34;;;;;;;22.45;19.17;;;;;;;;;;5028904;28;20044;-71
2022/06/30 10:47:04;;;;;;;23.73;17.95;;;;;;;;;;5028203;28;20455;-70
2022/06/30 10:49:30;;;;;;;20.88;18.65;;;;;;;;;;5027581;28;20108;-71
2022/06/30 10:51:57;;;;;;;22.38;16.95;;;;;;;;;;5032260;28;20072;-72
2022/06/30 10:54:29;;;;;;;18.38;15.43;;;;;;;;;;5031145;28;20475;-71
2022/06/30 10:56:56;;;;;;;24.13;16.83;;;;;;;;;;5030788;28;20475;-72
2022/06/30 10:59:29;;;;;;;24.25;17.17;;;;;;;;;;5030203;28;20105;-71
2022/06/30 11:02:21;;;;;;;19.23;15.57;;;;;;;;;;5028493;28;20017;-72
2022/06/30 11:04:49;;;;;;;19.52;15.77;;;;;;;;;;5024812;28;20030;-72
2022/06/30 11:07:19;;;;;;;17.33;15.52;;;;;;;;;;5027821;28;20041;-71
2022/06/30 11:09:48;;;;;;;20.00;16.75;;;;;;;;;;5026690;28;20074;-71
2022/06/30 11:12:15;;;;;;;19.13;16.75;;;;;;;;;;5027684;28;20050;-71
2022/06/30 11:14:41;;;;;;;24.55;16.40;;;;;;;;;;5028001;28;20030;-72
2022/06/30 11:17:13;;;;;;;19.27;16.77;;;;;;;;;;5029598;28;20025;-71
2022/06/30 11:19:39;;;;;;;19.67;15.20;;;;;;;;;;5031322;28;20030;-72
2022/06/30 11:22:06;;;;;;;19.90;15.68;;;;;;;;;;5031204;28;20502;-72
2022/06/30 11:24:33;;;;;;;17.75;14.55;;;;;;;;;;5031218;28;20030;-72
2022/06/30 11:29:45;;;;;;;17.73;14.30;;;;;;;;;;5031236;28;20032;-72
2022/06/30 11:32:11;;;;;;;21.70;13.05;;;;;;;;;;5050694;22;20025;-70
2022/06/30 11:34:40;;;;;;;15.25;13.45;;;;;;;;;;5030117;28;20141;-72
2022/06/30 11:37:06;;;;;;;16.35;13.48;;;;;;;;;;5030832;28;20034;-71
2022/06/30 11:39:32;;;;;;;15.50;13.60;;;;;;;;;;5031175;28;20018;-73
2022/06/30 11:42:00;;;;;;;15.95;12.52;;;;;;;;;;5031069;28;20021;-72
2022/06/30 11:44:26;;;;;;;16.77;13.18;;;;;;;;;;5010081;28;20436;-73
2022/06/30 11:46:55;;;;;;;13.80;12.27;;;;;;;;;;5011035;28;20058;-72
2022/06/30 11:49:22;;;;;;;14.35;12.75;;;;;;;;;;5010683;28;20026;-72
2022/06/30 11:51:48;;;;;;;16.27;12.43;;;;;;;;;;5011179;28;20034;-72
2022/06/30 11:54:15;;;;;;;15.18;11.80;;;;;;;;;;5009880;28;20106;-74
2022/06/30 11:56:51;;;;;;;17.25;12.45;;;;;;;;;;5010796;28;20033;-70
2022/06/30 11:59:18;;;;;;;17.13;12.10;;;;;;;;;;5010567;28;20592;-71
2022/06/30 12:02:03;;;;;;;15.32;12.48;;;;;;;;;;5010939;28;20057;-71
2022/06/30 12:04:29;;;;;;;16.92;13.48;;;;;;;;;;5010784;28;20042;-71
2022/06/30 12:06:55;;;;;;;19.55;14.48;;;;;;;;;;5010787;28;20026;-72
2022/06/30 12:09:21;;;;;;;18.75;15.02;;;;;;;;;;5010442;28;20037;-71
2022/06/30 12:11:47;;;;;;;17.23;14.00;;;;;;;;;;5010693;28;20025;-71
2022/06/30 12:14:16;;;;;;;16.58;13.63;;;;;;;;;;5010443;28;20172;-72
2022/06/30 12:16:42;;;;;;;15.90;13.43;;;;;;;;;;5010549;28;20026;-71
2022/06/30 12:19:08;;;;;;;17.40;12.95;;;;;;;;;;5010142;28;20059;-71
2022/06/30 12:21:34;;;;;;;15.32;13.52;;;;;;;;;;5009347;28;20073;-72
2022/06/30 12:24:00;;;;;;;15.30;13.68;;;;;;;;;;5010504;28;20050;-71
2022/06/30 12:26:26;;;;;;;15.65;14.05;;;;;;;;;;5008496;28;20030;-72
2022/06/30 12:28:56;;;;;;;17.10;14.75;;;;;;;;;;5010191;28;20028;-71
2022/06/30 12:31:26;;;;;;;20.08;15.80;;;;;;;;;;5009235;28;20026;-71
2022/06/30 12:33:54;;;;;;;18.73;16.73;;;;;;;;;;5010095;28;20041;-71
2022/06/30 12:36:21;;;;;;;18.48;16.55;;;;;;;;;;5010175;28;20026;-71
2022/06/30 12:38:47;;;;;;;18.98;17.15;;;;;;;;;;5009868;28;20071;-72
2022/06/30 12:41:13;;;;;;;18.83;16.63;;;;;;;;;;5010161;28;20026;-72
2022/06/30 12:43:43;;;;;;;20.05;17.58;;;;;;;;;;5010003;28;20025;-71
2022/06/30 12:46:10;;;;;;;20.92;18.73;;;;;;;;;;5010099;28;20030;-72
2022/06/30 12:48:42;;;;;;;20.35;17.38;;;;;;;;;;5008623;28;20026;-72
2022/06/30 12:51:09;;;;;;;23.60;18.25;;;;;;;;;;5010194;28;20079;-72
2022/06/30 12:53:35;;;;;;;19.73;17.73;;;;;;;;;;5009969;28;20162;-70
2022/06/30 12:56:02;;;;;;;20.75;17.60;;;;;;;;;;5009872;28;20142;-71
2022/06/30 12:58:44;;;;;;;18.83;16.42;;;;;;;;;;5009409;28;20030;-72
2022/06/30 13:01:13;;;;;;;18.73;16.77;;;;;;;;;;5008407;28;20022;-71
2022/06/30 13:03:48;;;;;;;22.13;17.00;;;;;;;;;;5009746;28;20022;-72
2022/06/30 13:06:14;;;;;;;18.77;15.27;;;;;;;;;;5009949;28;20022;-71
2022/06/30 13:08:43;;;;;;;16.80;13.75;;;;;;;;;;5009442;28;20041;-71
2022/06/30 13:11:11;;;;;;;17.10;14.93;;;;;;;;;;5009708;28;20621;-70
2022/06/30 13:13:37;;;;;;;18.48;14.80;;;;;;;;;;5008542;28;20026;-72
2022/06/30 13:16:03;;;;;;;23.80;15.65;;;;;;;;;;5008179;28;20468;-72
2022/06/30 13:18:29;;;;;;;18.98;15.48;;;;;;;;;;5007841;28;20106;-72
2022/06/30 13:20:55;;;;;;;17.45;15.50;;;;;;;;;;5008158;28;20026;-72
2022/06/30 13:23:21;;;;;;;20.98;15.82;;;;;;;;;;5008484;28;20026;-72
2022/06/30 13:25:47;;;;;;;17.70;15.85;;;;;;;;;;5009843;28;20041;-71
2022/06/30 13:28:13;;;;;;;17.80;15.38;;;;;;;;;;5009318;28;20026;-71
2022/06/30 13:30:39;;;;;;;23.00;17.52;;;;;;;;;;5009622;28;20026;-68
2022/06/30 13:33:05;;;;;;;20.80;17.23;;;;;;;;;;5009300;28;20079;-71
2022/06/30 13:35:31;;;;;;;17.58;15.73;;;;;;;;;;5009833;28;20026;-72
2022/06/30 13:37:57;;;;;;;17.48;15.73;;;;;;;;;;5009602;28;20136;-72
2022/06/30 13:40:23;;;;;;;17.55;15.23;;;;;;;;;;5009167;28;20067;-71
2022/06/30 13:42:49;;;;;;;18.73;15.70;;;;;;;;;;5007859;28;20061;-72
2022/06/30 13:45:15;;;;;;;17.27;14.77;;;;;;;;;;5009612;28;20067;-71
2022/06/30 13:47:41;;;;;;;17.35;15.27;;;;;;;;;;5008923;28;20483;-71
2022/06/30 13:50:08;;;;;;;16.58;14.85;;;;;;;;;;5008019;28;20030;-72
2022/06/30 13:52:35;;;;;;;17.00;15.25;;;;;;;;;;5009048;28;20075;-72
2022/06/30 13:55:01;;;;;;;23.13;15.02;;;;;;;;;;5009510;28;20029;-72
2022/06/30 13:57:27;;;;;;;14.80;13.18;;;;;;;;;;5008899;28;20038;-73
2022/06/30 13:59:53;;;;;;;18.73;13.30;;;;;;;;;;5007622;28;20026;-70
2022/06/30 14:02:19;;;;;;;14.98;13.00;;;;;;;;;;5008931;28;20074;-72
2022/06/30 14:04:45;;;;;;;18.38;14.23;;;;;;;;;;5009110;28;20029;-72
2022/06/30 14:07:11;;;;;;;15.88;13.57;;;;;;;;;;5008762;28;20433;-72
2022/06/30 14:09:37;;;;;;;14.25;12.77;;;;;;;;;;5008617;28;20040;-73
2022/06/30 14:12:03;;;;;;;14.30;12.82;;;;;;;;;;5008856;28;20395;-73
2022/06/30 14:14:29;;;;;;;14.73;13.20;;;;;;;;;;5008836;28;20026;-71
2022/06/30 14:16:56;;;;;;;15.50;13.48;;;;;;;;;;5007255;28;20049;-72
2022/06/30 14:19:22;;;;;;;15.18;13.52;;;;;;;;;;5007335;28;20028;-71
2022/06/30 14:21:49;;;;;;;14.60;13.10;;;;;;;;;;5008624;28;20502;-72
2022/06/30 14:24:16;;;;;;;15.13;13.52;;;;;;;;;;5008552;28;20026;-71
2022/06/30 14:26:42;;;;;;;14.93;13.43;;;;;;;;;;5007504;28;20086;-71
2022/06/30 14:29:10;;;;;;;14.60;12.73;;;;;;;;;;5008670;28;20072;-72
2022/06/30 14:31:36;;;;;;;23.83;14.55;;;;;;;;;;5008781;28;20543;-73
2022/06/30 14:34:02;;;;;;;15.55;13.23;;;;;;;;;;5008893;28;20106;-73
2022/06/30 14:36:29;;;;;;;17.67;13.35;;;;;;;;;;5008400;28;20480;-71